Latest Weather Observations for Little Bay

IDN60801

Issued at 7:05 am EST Wednesday 17 September 2014 (issued every 30 minutes, with the page automatically refreshed every 10 minutes)

About weather observations | Map of weather stations | Latest weather observations for NSW | Other Formats
Station Details ID: 066051 Name: LITTLE BAY (THE COAST GOLF CLUB) Lat: -33.98 Lon: 151.25 Height: 22.0 m
Data from the previous 72 hours. | See also: Recent months for locations in New South Wales
Date/Time
EST
Temp
°C
App
Temp
°C
Dew
Point
Rel
Hum
%
Delta-T
°C
Wind Press
QNH
hPa
Press
MSL
hPa
Rain
since 9 am
mm
Dir
 
Spd
km/h
Gust
km/h
Spd
kts
Gust
kts
17/07:00am - - - - - WNW 15 24 8 13 - - -
17/06:30am - - - - - WNW 9 17 5 9 - - -
17/06:00am - - - - - WNW 11 20 6 11 - - -
17/05:30am - - - - - WNW 15 24 8 13 - - -
17/05:00am - - - - - WNW 11 22 6 12 - - -
17/04:30am - - - - - NW 9 17 5 9 - - -
17/04:00am - - - - - W 11 19 6 10 - - -
17/03:30am - - - - - W 13 22 7 12 - - -
17/03:00am - - - - - WNW 11 19 6 10 - - -
17/02:30am - - - - - W 15 28 8 15 - - -
17/02:00am - - - - - WNW 13 20 7 11 - - -
17/01:30am - - - - - NW 11 19 6 10 - - -
17/01:00am - - - - - WNW 11 19 6 10 - - -
17/12:30am - - - - - WNW 13 19 7 10 - - -
17/12:00am - - - - - WNW 11 17 6 9 - - -
 
Date/Time
EST
Temp
°C
App
Temp
°C
Dew
Point
Rel
Hum
%
Delta-T
°C
Wind Press
QNH
hPa
Press
MSL
hPa
Rain
since 9 am
mm
Dir
 
Spd
km/h
Gust
km/h
Spd
kts
Gust
kts
16/11:30pm - - - - - WNW 9 17 5 9 - - -
16/11:00pm - - - - - WNW 11 19 6 10 - - -
16/10:30pm - - - - - WNW 13 22 7 12 - - -
16/10:00pm - - - - - WNW 19 32 10 17 - - -
16/09:30pm - - - - - WNW 17 32 9 17 - - -
16/09:00pm - - - - - W 22 35 12 19 - - -
16/08:30pm - - - - - W 24 35 13 19 - - -
16/08:00pm - - - - - W 26 41 14 22 - - -
16/07:30pm - - - - - WNW 17 26 9 14 - - -
16/07:00pm - - - - - W 19 32 10 17 - - -
16/06:30pm - - - - - W 19 32 10 17 - - -
16/06:00pm - - - - - W 20 30 11 16 - - -
16/05:30pm - - - - - W 19 35 10 19 - - -
16/05:00pm - - - - - N 4 9 2 5 - - -
16/04:30pm - - - - - N 9 11 5 6 - - -
16/04:00pm - - - - - N 6 11 3 6 - - -
16/03:30pm - - - - - NNE 17 22 9 12 - - -
16/03:00pm - - - - - N 22 32 12 17 - - -
16/02:30pm - - - - - N 22 37 12 20 - - -
16/02:00pm - - - - - N 20 32 11 17 - - -
16/01:30pm - - - - - NNE 33 44 18 24 - - -
16/01:00pm - - - - - NNE 32 44 17 24 - - -
16/12:30pm - - - - - NNE 33 46 18 25 - - -
16/12:00pm - - - - - N 30 44 16 24 - - -
16/11:30am - - - - - NNE 26 33 14 18 - - -
16/11:00am - - - - - N 20 30 11 16 - - -
16/10:30am - - - - - N 22 35 12 19 - - -
16/10:00am - - - - - NNE 37 50 20 27 - - -
16/09:30am - - - - - NNE 33 48 18 26 - - -
16/09:00am - - - - - NNE 32 39 17 21 - - -
16/08:30am - - - - - NNE 28 35 15 19 - - -
16/08:00am - - - - - WNW 11 17 6 9 - - -
16/07:30am - - - - - W 7 9 4 5 - - -
16/07:00am - - - - - N 17 24 9 13 - - -
16/06:30am - - - - - N 9 13 5 7 - - -
16/06:00am - - - - - N 6 7 3 4 - - -
16/05:30am - - - - - W 9 15 5 8 - - -
16/05:00am - - - - - N 7 15 4 8 - - -
16/04:30am - - - - - N 11 17 6 9 - - -
16/04:00am - - - - - N 19 26 10 14 - - -
16/03:30am - - - - - NNE 22 30 12 16 - - -
16/03:00am - - - - - NNE 24 37 13 20 - - -
16/02:30am - - - - - NNE 28 39 15 21 - - -
16/02:00am - - - - - NNE 30 39 16 21 - - -
16/01:30am - - - - - NNE 33 44 18 24 - - -
16/01:00am - - - - - NNE 22 32 12 17 - - -
16/12:30am - - - - - NNW 6 9 3 5 - - -
16/12:00am - - - - - N 15 20 8 11 - - -
 
Date/Time
EST
Temp
°C
App
Temp
°C
Dew
Point
Rel
Hum
%
Delta-T
°C
Wind Press
QNH
hPa
Press
MSL
hPa
Rain
since 9 am
mm
Dir
 
Spd
km/h
Gust
km/h
Spd
kts
Gust
kts
15/11:30pm - - - - - N 15 24 8 13 - - -
15/11:00pm - - - - - NNE 17 24 9 13 - - -
15/10:30pm - - - - - NNE 19 24 10 13 - - -
15/10:00pm - - - - - NNE 17 24 9 13 - - -
15/09:30pm - - - - - NNE 19 24 10 13 - - -
15/09:00pm - - - - - NNE 22 30 12 16 - - -
15/08:30pm - - - - - NNE 24 32 13 17 - - -
15/08:00pm - - - - - NE 20 28 11 15 - - -
15/07:30pm - - - - - NE 19 24 10 13 - - -
15/07:00pm - - - - - NE 20 26 11 14 - - -
15/06:30pm - - - - - NE 19 26 10 14 - - -
15/06:00pm - - - - - NE 17 28 9 15 - - -
15/05:30pm - - - - - NE 19 24 10 13 - - -
15/05:00pm - - - - - NE 17 22 9 12 - - -
15/04:30pm - - - - - NE 17 26 9 14 - - -
15/04:00pm - - - - - ENE 19 28 10 15 - - -
15/03:30pm - - - - - NE 17 26 9 14 - - -
15/03:00pm - - - - - ENE 15 20 8 11 - - -
15/02:30pm - - - - - ENE 15 20 8 11 - - -
15/02:00pm - - - - - ENE 15 20 8 11 - - -
15/01:30pm - - - - - ENE 15 20 8 11 - - -
15/01:00pm - - - - - E 13 17 7 9 - - -
15/12:30pm - - - - - E 13 17 7 9 - - -
15/12:00pm - - - - - E 9 13 5 7 - - -
15/11:30am - - - - - E 11 13 6 7 - - -
15/11:00am - - - - - ENE 9 11 5 6 - - -
15/10:30am - - - - - E 7 9 4 5 - - -
15/10:00am - - - - - E 7 9 4 5 - - -
15/09:30am - - - - - W 2 4 1 2 - - -
15/09:00am - - - - - WNW 7 11 4 6 - - -
15/08:30am - - - - - W 11 15 6 8 - - -
15/08:00am - - - - - WNW 11 13 6 7 - - -
15/07:30am - - - - - WNW 9 13 5 7 - - -
15/07:00am - - - - - WNW 9 13 5 7 - - -
15/06:30am - - - - - WNW 9 11 5 6 - - -
15/06:00am - - - - - W 7 9 4 5 - - -
15/05:30am - - - - - W 9 11 5 6 - - -
15/05:00am - - - - - W 9 11 5 6 - - -
15/04:30am - - - - - WNW 7 11 4 6 - - -
15/04:00am - - - - - WNW 9 13 5 7 - - -
15/03:30am - - - - - SE 2 6 1 3 - - -
15/03:00am - - - - - WSW 6 7 3 4 - - -
15/02:30am - - - - - SW 9 11 5 6 - - -
15/02:00am - - - - - SSW 6 9 3 5 - - -
15/01:30am - - - - - S 7 13 4 7 - - -
15/01:00am - - - - - SW 6 7 3 4 - - -
15/12:30am - - - - - SW 6 9 3 5 - - -
15/12:00am - - - - - SSW 6 9 3 5 - - -
 
Date/Time
EST
Temp
°C
App
Temp
°C
Dew
Point
Rel
Hum
%
Delta-T
°C
Wind Press
QNH
hPa
Press
MSL
hPa
Rain
since 9 am
mm
Dir
 
Spd
km/h
Gust
km/h
Spd
kts
Gust
kts
14/11:30pm - - - - - S 7 11 4 6 - - -
14/11:00pm - - - - - S 9 13 5 7 - - -
14/10:30pm - - - - - S 13 17 7 9 - - -
14/10:00pm - - - - - S 11 17 6 9 - - -
14/09:30pm - - - - - S 15 19 8 10 - - -
14/09:00pm - - - - - S 15 24 8 13 - - -
14/08:30pm - - - - - S 17 24 9 13 - - -
14/08:00pm - - - - - SSE 20 28 11 15 - - -
14/07:30pm - - - - - S 17 22 9 12 - - -
14/07:00pm - - - - - SSE 17 22 9 12 - - -
14/06:30pm - - - - - SSE 20 28 11 15 - - -
14/06:00pm - - - - - SSE 19 28 10 15 - - -
14/05:30pm - - - - - SSE 20 26 11 14 - - -
14/05:00pm - - - - - SSE 19 26 10 14 - - -
14/04:30pm - - - - - SSE 19 24 10 13 - - -
14/04:00pm - - - - - SSE 19 22 10 12 - - -
14/03:30pm - - - - - SSE 15 19 8 10 - - -
14/03:00pm - - - - - E 9 11 5 6 - - -
14/02:30pm - - - - - E 9 11 5 6 - - -
14/02:00pm - - - - - ENE 9 13 5 7 - - -
14/01:30pm - - - - - ENE 9 13 5 7 - - -
14/01:00pm - - - - - ENE 7 11 4 6 - - -
14/12:30pm - - - - - ENE 7 9 4 5 - - -
14/12:00pm - - - - - ENE 7 11 4 6 - - -
14/11:30am - - - - - NE 9 13 5 7 - - -
14/11:00am - - - - - NE 11 15 6 8 - - -
14/10:30am - - - - - NE 9 15 5 8 - - -
14/10:00am - - - - - N 7 13 4 7 - - -
14/09:30am - - - - - NW 7 11 4 6 - - -
14/09:00am - - - - - WNW 9 15 5 8 - - -
14/08:30am - - - - - WNW 13 19 7 10 - - -
14/08:00am - - - - - WNW 13 19 7 10 - - -
14/07:30am - - - - - WNW 9 17 5 9 - - -

Other Formats:

Comma delimited format used in spreadsheet applications
http://www.bom.gov.au/fwo/IDN60801/IDN60801.94780.axf

JavaScript Object Notation format (JSON) in row-major order
http://www.bom.gov.au/fwo/IDN60801/IDN60801.94780.json